sensor_id;sensor_type;location;lat;lon;timestamp;P1;durP1;ratioP1;P2;durP2;ratioP2
22480;SDS011;11407;56.964;-2.212;2022-09-30T00:01:31;5.37;;;2.70;;
22480;SDS011;11407;56.964;-2.212;2022-09-30T00:03:58;5.30;;;2.80;;
22480;SDS011;11407;56.964;-2.212;2022-09-30T00:06:24;10.87;;;3.30;;
22480;SDS011;11407;56.964;-2.212;2022-09-30T00:08:51;7.73;;;3.00;;
22480;SDS011;11407;56.964;-2.212;2022-09-30T00:11:21;6.80;;;2.87;;
22480;SDS011;11407;56.964;-2.212;2022-09-30T00:13:49;9.27;;;3.17;;
22480;SDS011;11407;56.964;-2.212;2022-09-30T00:16:16;10.60;;;3.17;;
22480;SDS011;11407;56.964;-2.212;2022-09-30T00:18:43;7.50;;;3.50;;
22480;SDS011;11407;56.964;-2.212;2022-09-30T00:21:09;9.50;;;2.83;;
22480;SDS011;11407;56.964;-2.212;2022-09-30T00:23:35;11.27;;;2.87;;
22480;SDS011;11407;56.964;-2.212;2022-09-30T00:26:03;9.43;;;3.30;;
22480;SDS011;11407;56.964;-2.212;2022-09-30T00:28:36;10.07;;;3.37;;
22480;SDS011;11407;56.964;-2.212;2022-09-30T00:31:03;13.57;;;3.43;;
22480;SDS011;11407;56.964;-2.212;2022-09-30T00:33:31;6.90;;;2.93;;
22480;SDS011;11407;56.964;-2.212;2022-09-30T00:35:57;11.57;;;3.70;;
22480;SDS011;11407;56.964;-2.212;2022-09-30T00:38:22;6.93;;;2.87;;
22480;SDS011;11407;56.964;-2.212;2022-09-30T00:40:48;7.60;;;2.93;;
22480;SDS011;11407;56.964;-2.212;2022-09-30T00:43:20;9.17;;;3.47;;
22480;SDS011;11407;56.964;-2.212;2022-09-30T00:46:13;8.30;;;3.47;;
22480;SDS011;11407;56.964;-2.212;2022-09-30T00:49:10;7.87;;;3.30;;
22480;SDS011;11407;56.964;-2.212;2022-09-30T00:51:41;7.97;;;2.97;;
22480;SDS011;11407;56.964;-2.212;2022-09-30T00:54:11;7.80;;;3.07;;
22480;SDS011;11407;56.964;-2.212;2022-09-30T00:56:44;6.53;;;2.50;;
22480;SDS011;11407;56.964;-2.212;2022-09-30T00:59:15;9.63;;;2.90;;
22480;SDS011;11407;56.964;-2.212;2022-09-30T01:01:43;12.37;;;3.10;;
22480;SDS011;11407;56.964;-2.212;2022-09-30T01:04:10;10.63;;;3.17;;
22480;SDS011;11407;56.964;-2.212;2022-09-30T01:06:38;8.90;;;2.83;;
22480;SDS011;11407;56.964;-2.212;2022-09-30T01:09:04;5.80;;;2.73;;
22480;SDS011;11407;56.964;-2.212;2022-09-30T01:11:30;9.00;;;2.93;;
22480;SDS011;11407;56.964;-2.212;2022-09-30T01:13:56;8.23;;;3.30;;
22480;SDS011;11407;56.964;-2.212;2022-09-30T01:19:21;10.10;;;3.27;;
22480;SDS011;11407;56.964;-2.212;2022-09-30T01:33:41;11.80;;;3.43;;
22480;SDS011;11407;56.964;-2.212;2022-09-30T01:50:00;8.83;;;3.00;;
22480;SDS011;11407;56.964;-2.212;2022-09-30T01:52:36;11.33;;;3.50;;
22480;SDS011;11407;56.964;-2.212;2022-09-30T01:55:17;10.20;;;3.17;;
22480;SDS011;11407;56.964;-2.212;2022-09-30T02:00:12;7.50;;;2.80;;
22480;SDS011;11407;56.964;-2.212;2022-09-30T02:02:44;6.40;;;2.97;;
22480;SDS011;11407;56.964;-2.212;2022-09-30T02:05:22;8.87;;;3.03;;
22480;SDS011;11407;56.964;-2.212;2022-09-30T02:07:59;10.90;;;3.00;;
22480;SDS011;11407;56.964;-2.212;2022-09-30T02:10:34;10.80;;;2.70;;
22480;SDS011;11407;56.964;-2.212;2022-09-30T02:13:18;8.60;;;2.83;;
22480;SDS011;11407;56.964;-2.212;2022-09-30T02:15:53;7.60;;;2.50;;
22480;SDS011;11407;56.964;-2.212;2022-09-30T02:18:29;7.03;;;2.87;;
22480;SDS011;11407;56.964;-2.212;2022-09-30T02:21:02;5.97;;;2.63;;
22480;SDS011;11407;56.964;-2.212;2022-09-30T02:23:32;7.77;;;2.80;;
22480;SDS011;11407;56.964;-2.212;2022-09-30T02:28:41;7.33;;;3.10;;
22480;SDS011;11407;56.964;-2.212;2022-09-30T02:31:12;10.27;;;2.93;;
22480;SDS011;11407;56.964;-2.212;2022-09-30T02:33:42;7.13;;;2.60;;
22480;SDS011;11407;56.964;-2.212;2022-09-30T02:38:55;7.57;;;2.67;;
22480;SDS011;11407;56.964;-2.212;2022-09-30T02:41:27;8.03;;;2.70;;
22480;SDS011;11407;56.964;-2.212;2022-09-30T02:43:55;7.10;;;2.37;;
22480;SDS011;11407;56.964;-2.212;2022-09-30T02:46:26;9.60;;;2.77;;
22480;SDS011;11407;56.964;-2.212;2022-09-30T03:00:06;6.93;;;2.50;;
22480;SDS011;11407;56.964;-2.212;2022-09-30T03:02:33;9.47;;;2.60;;
22480;SDS011;11407;56.964;-2.212;2022-09-30T03:04:59;13.53;;;3.43;;
22480;SDS011;11407;56.964;-2.212;2022-09-30T03:07:25;10.07;;;2.40;;
22480;SDS011;11407;56.964;-2.212;2022-09-30T03:09:54;5.57;;;2.10;;
22480;SDS011;11407;56.964;-2.212;2022-09-30T03:12:29;7.57;;;3.07;;
22480;SDS011;11407;56.964;-2.212;2022-09-30T03:18:03;6.60;;;2.53;;
22480;SDS011;11407;56.964;-2.212;2022-09-30T03:20:50;10.00;;;2.90;;
22480;SDS011;11407;56.964;-2.212;2022-09-30T03:23:36;7.57;;;2.23;;
22480;SDS011;11407;56.964;-2.212;2022-09-30T03:29:43;8.40;;;3.00;;
22480;SDS011;11407;56.964;-2.212;2022-09-30T03:32:11;7.23;;;2.50;;
22480;SDS011;11407;56.964;-2.212;2022-09-30T03:37:45;6.73;;;2.40;;
22480;SDS011;11407;56.964;-2.212;2022-09-30T03:40:28;7.10;;;2.60;;
22480;SDS011;11407;56.964;-2.212;2022-09-30T03:43:05;5.67;;;2.30;;
22480;SDS011;11407;56.964;-2.212;2022-09-30T03:45:44;6.73;;;2.27;;
22480;SDS011;11407;56.964;-2.212;2022-09-30T03:48:14;7.73;;;3.00;;
22480;SDS011;11407;56.964;-2.212;2022-09-30T03:50:42;10.67;;;2.57;;
22480;SDS011;11407;56.964;-2.212;2022-09-30T03:53:09;8.57;;;2.93;;
22480;SDS011;11407;56.964;-2.212;2022-09-30T03:55:49;9.43;;;2.67;;
22480;SDS011;11407;56.964;-2.212;2022-09-30T03:58:16;7.20;;;2.77;;
22480;SDS011;11407;56.964;-2.212;2022-09-30T04:00:47;9.03;;;3.03;;
22480;SDS011;11407;56.964;-2.212;2022-09-30T04:03:14;12.17;;;2.77;;
22480;SDS011;11407;56.964;-2.212;2022-09-30T04:05:40;7.83;;;2.63;;
22480;SDS011;11407;56.964;-2.212;2022-09-30T04:08:06;8.63;;;2.80;;
22480;SDS011;11407;56.964;-2.212;2022-09-30T04:10:32;9.03;;;2.80;;
22480;SDS011;11407;56.964;-2.212;2022-09-30T04:12:57;10.50;;;3.03;;
22480;SDS011;11407;56.964;-2.212;2022-09-30T04:15:23;4.90;;;2.10;;
22480;SDS011;11407;56.964;-2.212;2022-09-30T04:17:48;8.67;;;2.33;;
22480;SDS011;11407;56.964;-2.212;2022-09-30T04:20:14;7.37;;;2.50;;
22480;SDS011;11407;56.964;-2.212;2022-09-30T04:22:39;4.43;;;2.20;;
22480;SDS011;11407;56.964;-2.212;2022-09-30T04:25:05;7.23;;;2.40;;
22480;SDS011;11407;56.964;-2.212;2022-09-30T04:27:31;7.53;;;2.70;;
22480;SDS011;11407;56.964;-2.212;2022-09-30T04:29:56;10.30;;;2.40;;
22480;SDS011;11407;56.964;-2.212;2022-09-30T04:32:22;7.53;;;2.80;;
22480;SDS011;11407;56.964;-2.212;2022-09-30T04:34:47;5.47;;;2.60;;
22480;SDS011;11407;56.964;-2.212;2022-09-30T04:37:12;7.57;;;2.83;;
22480;SDS011;11407;56.964;-2.212;2022-09-30T04:39:38;7.40;;;2.73;;
22480;SDS011;11407;56.964;-2.212;2022-09-30T04:42:04;8.40;;;2.37;;
22480;SDS011;11407;56.964;-2.212;2022-09-30T04:44:31;8.97;;;2.83;;
22480;SDS011;11407;56.964;-2.212;2022-09-30T04:46:56;9.97;;;2.70;;
22480;SDS011;11407;56.964;-2.212;2022-09-30T04:49:22;7.90;;;2.70;;
22480;SDS011;11407;56.964;-2.212;2022-09-30T04:51:48;6.77;;;2.30;;
22480;SDS011;11407;56.964;-2.212;2022-09-30T04:54:13;11.67;;;2.90;;
22480;SDS011;11407;56.964;-2.212;2022-09-30T04:56:40;8.53;;;3.30;;
22480;SDS011;11407;56.964;-2.212;2022-09-30T04:59:06;7.43;;;3.10;;
22480;SDS011;11407;56.964;-2.212;2022-09-30T05:01:31;10.67;;;3.13;;
22480;SDS011;11407;56.964;-2.212;2022-09-30T05:03:57;9.13;;;3.20;;
22480;SDS011;11407;56.964;-2.212;2022-09-30T05:06:22;6.20;;;2.90;;
22480;SDS011;11407;56.964;-2.212;2022-09-30T05:08:48;15.47;;;3.07;;
22480;SDS011;11407;56.964;-2.212;2022-09-30T05:11:14;11.33;;;3.20;;
22480;SDS011;11407;56.964;-2.212;2022-09-30T05:13:44;11.30;;;3.10;;
22480;SDS011;11407;56.964;-2.212;2022-09-30T05:16:10;8.70;;;3.57;;
22480;SDS011;11407;56.964;-2.212;2022-09-30T05:18:36;10.77;;;3.33;;
22480;SDS011;11407;56.964;-2.212;2022-09-30T05:21:04;7.50;;;2.57;;
22480;SDS011;11407;56.964;-2.212;2022-09-30T05:23:30;6.37;;;2.60;;
22480;SDS011;11407;56.964;-2.212;2022-09-30T05:25:57;8.37;;;2.73;;
22480;SDS011;11407;56.964;-2.212;2022-09-30T05:28:23;6.83;;;2.57;;
22480;SDS011;11407;56.964;-2.212;2022-09-30T05:30:54;12.47;;;3.07;;
22480;SDS011;11407;56.964;-2.212;2022-09-30T05:33:22;8.23;;;2.40;;
22480;SDS011;11407;56.964;-2.212;2022-09-30T05:35:47;10.27;;;2.87;;
22480;SDS011;11407;56.964;-2.212;2022-09-30T05:38:12;9.03;;;3.30;;
22480;SDS011;11407;56.964;-2.212;2022-09-30T05:40:38;12.03;;;3.87;;
22480;SDS011;11407;56.964;-2.212;2022-09-30T05:43:04;8.10;;;3.20;;
22480;SDS011;11407;56.964;-2.212;2022-09-30T05:45:30;7.97;;;2.80;;
22480;SDS011;11407;56.964;-2.212;2022-09-30T05:47:56;9.87;;;3.10;;
22480;SDS011;11407;56.964;-2.212;2022-09-30T05:50:22;11.70;;;3.70;;
22480;SDS011;11407;56.964;-2.212;2022-09-30T05:52:48;9.57;;;3.27;;
22480;SDS011;11407;56.964;-2.212;2022-09-30T05:55:17;9.27;;;2.97;;
22480;SDS011;11407;56.964;-2.212;2022-09-30T05:57:48;8.37;;;2.90;;
22480;SDS011;11407;56.964;-2.212;2022-09-30T06:00:14;12.80;;;3.47;;
22480;SDS011;11407;56.964;-2.212;2022-09-30T06:02:40;10.87;;;3.33;;
22480;SDS011;11407;56.964;-2.212;2022-09-30T06:05:06;11.03;;;2.80;;
22480;SDS011;11407;56.964;-2.212;2022-09-30T06:07:33;9.00;;;3.30;;
22480;SDS011;11407;56.964;-2.212;2022-09-30T06:10:00;11.47;;;4.07;;
22480;SDS011;11407;56.964;-2.212;2022-09-30T06:12:25;10.70;;;3.30;;
22480;SDS011;11407;56.964;-2.212;2022-09-30T06:14:53;8.07;;;3.30;;
22480;SDS011;11407;56.964;-2.212;2022-09-30T06:17:19;12.77;;;3.17;;
22480;SDS011;11407;56.964;-2.212;2022-09-30T06:19:45;8.60;;;2.90;;
22480;SDS011;11407;56.964;-2.212;2022-09-30T06:22:10;7.23;;;2.90;;
22480;SDS011;11407;56.964;-2.212;2022-09-30T06:24:36;14.33;;;3.70;;
22480;SDS011;11407;56.964;-2.212;2022-09-30T06:27:01;9.13;;;3.20;;
22480;SDS011;11407;56.964;-2.212;2022-09-30T06:29:27;9.43;;;3.03;;
22480;SDS011;11407;56.964;-2.212;2022-09-30T06:31:52;15.83;;;3.70;;
22480;SDS011;11407;56.964;-2.212;2022-09-30T06:34:18;9.10;;;2.83;;
22480;SDS011;11407;56.964;-2.212;2022-09-30T06:36:43;10.80;;;3.10;;
22480;SDS011;11407;56.964;-2.212;2022-09-30T06:39:08;10.93;;;2.73;;
22480;SDS011;11407;56.964;-2.212;2022-09-30T06:41:34;13.33;;;3.70;;
22480;SDS011;11407;56.964;-2.212;2022-09-30T06:44:03;10.70;;;3.10;;
22480;SDS011;11407;56.964;-2.212;2022-09-30T06:46:29;10.23;;;3.30;;
22480;SDS011;11407;56.964;-2.212;2022-09-30T06:48:58;8.53;;;3.30;;
22480;SDS011;11407;56.964;-2.212;2022-09-30T06:51:24;11.73;;;3.00;;
22480;SDS011;11407;56.964;-2.212;2022-09-30T06:53:51;10.23;;;2.93;;
22480;SDS011;11407;56.964;-2.212;2022-09-30T06:56:18;10.00;;;3.33;;
22480;SDS011;11407;56.964;-2.212;2022-09-30T06:58:44;8.97;;;2.93;;
22480;SDS011;11407;56.964;-2.212;2022-09-30T07:01:11;10.73;;;3.00;;
22480;SDS011;11407;56.964;-2.212;2022-09-30T07:03:42;9.57;;;3.03;;
22480;SDS011;11407;56.964;-2.212;2022-09-30T07:06:09;6.90;;;2.90;;
22480;SDS011;11407;56.964;-2.212;2022-09-30T07:08:37;8.07;;;3.17;;
22480;SDS011;11407;56.964;-2.212;2022-09-30T07:11:04;6.20;;;2.60;;
22480;SDS011;11407;56.964;-2.212;2022-09-30T07:13:38;11.67;;;3.03;;
22480;SDS011;11407;56.964;-2.212;2022-09-30T07:16:04;9.70;;;2.87;;
22480;SDS011;11407;56.964;-2.212;2022-09-30T07:18:30;7.67;;;2.80;;
22480;SDS011;11407;56.964;-2.212;2022-09-30T07:20:55;8.63;;;2.60;;
22480;SDS011;11407;56.964;-2.212;2022-09-30T07:23:21;7.97;;;2.97;;
22480;SDS011;11407;56.964;-2.212;2022-09-30T07:25:52;9.73;;;2.83;;
22480;SDS011;11407;56.964;-2.212;2022-09-30T07:28:21;10.33;;;3.47;;
22480;SDS011;11407;56.964;-2.212;2022-09-30T07:30:56;9.07;;;3.00;;
22480;SDS011;11407;56.964;-2.212;2022-09-30T07:33:23;5.20;;;2.60;;
22480;SDS011;11407;56.964;-2.212;2022-09-30T07:35:52;6.17;;;2.77;;
22480;SDS011;11407;56.964;-2.212;2022-09-30T07:38:19;9.57;;;2.90;;
22480;SDS011;11407;56.964;-2.212;2022-09-30T07:40:57;9.83;;;2.97;;
22480;SDS011;11407;56.964;-2.212;2022-09-30T07:43:31;11.73;;;3.00;;
22480;SDS011;11407;56.964;-2.212;2022-09-30T07:48:38;6.67;;;2.80;;
22480;SDS011;11407;56.964;-2.212;2022-09-30T07:51:15;11.70;;;3.20;;
22480;SDS011;11407;56.964;-2.212;2022-09-30T07:53:44;12.00;;;2.83;;
22480;SDS011;11407;56.964;-2.212;2022-09-30T07:56:11;7.13;;;2.97;;
22480;SDS011;11407;56.964;-2.212;2022-09-30T07:58:37;9.23;;;3.20;;
22480;SDS011;11407;56.964;-2.212;2022-09-30T08:01:03;14.93;;;3.00;;
22480;SDS011;11407;56.964;-2.212;2022-09-30T08:03:36;13.13;;;3.10;;
22480;SDS011;11407;56.964;-2.212;2022-09-30T08:06:04;7.27;;;3.13;;
22480;SDS011;11407;56.964;-2.212;2022-09-30T08:08:30;8.10;;;2.90;;
22480;SDS011;11407;56.964;-2.212;2022-09-30T08:11:02;8.27;;;2.97;;
22480;SDS011;11407;56.964;-2.212;2022-09-30T08:13:29;13.03;;;3.20;;
22480;SDS011;11407;56.964;-2.212;2022-09-30T08:15:54;9.53;;;3.10;;
22480;SDS011;11407;56.964;-2.212;2022-09-30T08:18:20;11.83;;;3.33;;
22480;SDS011;11407;56.964;-2.212;2022-09-30T08:20:45;6.70;;;3.23;;
22480;SDS011;11407;56.964;-2.212;2022-09-30T08:23:11;10.47;;;3.10;;
22480;SDS011;11407;56.964;-2.212;2022-09-30T08:25:38;12.43;;;3.67;;
22480;SDS011;11407;56.964;-2.212;2022-09-30T08:28:03;10.03;;;3.30;;
22480;SDS011;11407;56.964;-2.212;2022-09-30T08:30:28;19.53;;;3.80;;
22480;SDS011;11407;56.964;-2.212;2022-09-30T08:32:54;12.53;;;3.70;;
22480;SDS011;11407;56.964;-2.212;2022-09-30T08:35:19;11.00;;;3.97;;
22480;SDS011;11407;56.964;-2.212;2022-09-30T08:37:45;12.07;;;4.07;;
22480;SDS011;11407;56.964;-2.212;2022-09-30T08:43:18;11.13;;;3.80;;
22480;SDS011;11407;56.964;-2.212;2022-09-30T08:46:07;9.03;;;3.73;;
22480;SDS011;11407;56.964;-2.212;2022-09-30T08:48:43;15.97;;;3.90;;
22480;SDS011;11407;56.964;-2.212;2022-09-30T08:51:22;9.77;;;3.70;;
22480;SDS011;11407;56.964;-2.212;2022-09-30T08:53:54;11.63;;;3.37;;
22480;SDS011;11407;56.964;-2.212;2022-09-30T08:56:23;11.73;;;3.67;;
22480;SDS011;11407;56.964;-2.212;2022-09-30T08:58:53;10.50;;;4.03;;
22480;SDS011;11407;56.964;-2.212;2022-09-30T09:01:33;13.57;;;4.13;;
22480;SDS011;11407;56.964;-2.212;2022-09-30T09:04:02;11.07;;;3.90;;
22480;SDS011;11407;56.964;-2.212;2022-09-30T09:06:33;18.70;;;4.67;;
22480;SDS011;11407;56.964;-2.212;2022-09-30T09:17:13;13.47;;;4.40;;
22480;SDS011;11407;56.964;-2.212;2022-09-30T09:19:51;15.07;;;4.50;;
22480;SDS011;11407;56.964;-2.212;2022-09-30T09:22:21;10.23;;;4.40;;
22480;SDS011;11407;56.964;-2.212;2022-09-30T09:24:49;13.53;;;4.57;;
22480;SDS011;11407;56.964;-2.212;2022-09-30T09:27:22;12.83;;;4.47;;
22480;SDS011;11407;56.964;-2.212;2022-09-30T09:32:26;13.90;;;4.80;;
22480;SDS011;11407;56.964;-2.212;2022-09-30T09:35:00;12.70;;;4.73;;
22480;SDS011;11407;56.964;-2.212;2022-09-30T09:54:29;18.37;;;4.83;;
22480;SDS011;11407;56.964;-2.212;2022-09-30T09:57:04;16.17;;;4.40;;
22480;SDS011;11407;56.964;-2.212;2022-09-30T09:59:31;21.60;;;4.73;;
22480;SDS011;11407;56.964;-2.212;2022-09-30T10:01:57;11.30;;;4.30;;
22480;SDS011;11407;56.964;-2.212;2022-09-30T10:04:25;18.93;;;4.60;;
22480;SDS011;11407;56.964;-2.212;2022-09-30T10:09:36;17.50;;;4.07;;
22480;SDS011;11407;56.964;-2.212;2022-09-30T10:16:58;13.50;;;4.37;;
22480;SDS011;11407;56.964;-2.212;2022-09-30T10:19:25;22.33;;;5.70;;
22480;SDS011;11407;56.964;-2.212;2022-09-30T10:24:33;19.97;;;4.80;;
22480;SDS011;11407;56.964;-2.212;2022-09-30T10:27:01;18.87;;;4.50;;
22480;SDS011;11407;56.964;-2.212;2022-09-30T10:29:30;24.87;;;5.40;;
22480;SDS011;11407;56.964;-2.212;2022-09-30T10:31:58;16.70;;;4.47;;
22480;SDS011;11407;56.964;-2.212;2022-09-30T10:34:33;16.80;;;4.80;;
22480;SDS011;11407;56.964;-2.212;2022-09-30T10:37:08;18.70;;;4.30;;
22480;SDS011;11407;56.964;-2.212;2022-09-30T10:39:40;13.33;;;4.20;;
22480;SDS011;11407;56.964;-2.212;2022-09-30T10:42:14;20.90;;;5.37;;
22480;SDS011;11407;56.964;-2.212;2022-09-30T10:44:53;19.20;;;5.10;;
22480;SDS011;11407;56.964;-2.212;2022-09-30T10:47:21;21.17;;;5.40;;
22480;SDS011;11407;56.964;-2.212;2022-09-30T10:52:25;16.97;;;5.03;;
22480;SDS011;11407;56.964;-2.212;2022-09-30T10:54:54;13.80;;;4.23;;
22480;SDS011;11407;56.964;-2.212;2022-09-30T10:57:22;17.97;;;5.30;;
22480;SDS011;11407;56.964;-2.212;2022-09-30T11:00:00;15.17;;;5.00;;
22480;SDS011;11407;56.964;-2.212;2022-09-30T11:23:50;18.30;;;5.97;;
22480;SDS011;11407;56.964;-2.212;2022-09-30T11:45:20;27.37;;;5.97;;
22480;SDS011;11407;56.964;-2.212;2022-09-30T11:53:25;15.33;;;5.20;;
22480;SDS011;11407;56.964;-2.212;2022-09-30T11:58:35;24.77;;;5.60;;
22480;SDS011;11407;56.964;-2.212;2022-09-30T12:04:00;18.73;;;5.37;;
22480;SDS011;11407;56.964;-2.212;2022-09-30T12:06:34;21.40;;;5.53;;
22480;SDS011;11407;56.964;-2.212;2022-09-30T12:09:06;25.40;;;5.70;;
22480;SDS011;11407;56.964;-2.212;2022-09-30T12:12:21;21.40;;;4.70;;
22480;SDS011;11407;56.964;-2.212;2022-09-30T12:17:08;21.23;;;5.73;;
22480;SDS011;11407;56.964;-2.212;2022-09-30T12:19:44;18.90;;;4.90;;
22480;SDS011;11407;56.964;-2.212;2022-09-30T12:22:14;23.17;;;6.03;;
22480;SDS011;11407;56.964;-2.212;2022-09-30T12:24:59;22.10;;;6.13;;
22480;SDS011;11407;56.964;-2.212;2022-09-30T12:27:43;20.33;;;5.03;;
22480;SDS011;11407;56.964;-2.212;2022-09-30T12:30:16;23.43;;;6.20;;
22480;SDS011;11407;56.964;-2.212;2022-09-30T12:48:56;26.87;;;6.17;;
22480;SDS011;11407;56.964;-2.212;2022-09-30T12:51:31;24.87;;;5.87;;
22480;SDS011;11407;56.964;-2.212;2022-09-30T12:53:59;30.43;;;6.43;;
22480;SDS011;11407;56.964;-2.212;2022-09-30T12:56:29;24.83;;;5.93;;
22480;SDS011;11407;56.964;-2.212;2022-09-30T12:58:57;25.07;;;6.00;;
22480;SDS011;11407;56.964;-2.212;2022-09-30T13:01:30;26.20;;;6.70;;
22480;SDS011;11407;56.964;-2.212;2022-09-30T13:11:40;20.57;;;5.30;;
22480;SDS011;11407;56.964;-2.212;2022-09-30T13:32:38;22.50;;;5.70;;
22480;SDS011;11407;56.964;-2.212;2022-09-30T13:45:52;21.97;;;4.90;;
22480;SDS011;11407;56.964;-2.212;2022-09-30T13:48:21;16.40;;;5.00;;
22480;SDS011;11407;56.964;-2.212;2022-09-30T13:50:57;15.93;;;4.60;;
22480;SDS011;11407;56.964;-2.212;2022-09-30T13:55:58;18.00;;;4.77;;
22480;SDS011;11407;56.964;-2.212;2022-09-30T14:20:05;15.00;;;3.67;;
22480;SDS011;11407;56.964;-2.212;2022-09-30T14:22:35;11.87;;;3.37;;
22480;SDS011;11407;56.964;-2.212;2022-09-30T14:25:01;13.27;;;3.03;;
22480;SDS011;11407;56.964;-2.212;2022-09-30T14:32:43;14.70;;;3.30;;
22480;SDS011;11407;56.964;-2.212;2022-09-30T14:35:11;11.63;;;2.37;;
22480;SDS011;11407;56.964;-2.212;2022-09-30T14:37:53;7.33;;;2.20;;
22480;SDS011;11407;56.964;-2.212;2022-09-30T14:40:26;9.57;;;2.57;;
22480;SDS011;11407;56.964;-2.212;2022-09-30T14:42:56;13.50;;;2.90;;
22480;SDS011;11407;56.964;-2.212;2022-09-30T14:45:27;7.40;;;2.00;;
22480;SDS011;11407;56.964;-2.212;2022-09-30T14:47:56;10.43;;;2.57;;
22480;SDS011;11407;56.964;-2.212;2022-09-30T14:50:27;7.63;;;2.17;;
22480;SDS011;11407;56.964;-2.212;2022-09-30T14:52:57;16.20;;;2.80;;
22480;SDS011;11407;56.964;-2.212;2022-09-30T14:55:32;13.07;;;2.60;;
22480;SDS011;11407;56.964;-2.212;2022-09-30T15:03:23;11.33;;;2.90;;
22480;SDS011;11407;56.964;-2.212;2022-09-30T15:05:50;11.87;;;2.43;;
22480;SDS011;11407;56.964;-2.212;2022-09-30T15:08:17;10.10;;;2.43;;
22480;SDS011;11407;56.964;-2.212;2022-09-30T15:10:48;10.90;;;2.20;;
22480;SDS011;11407;56.964;-2.212;2022-09-30T15:13:16;7.50;;;1.77;;
22480;SDS011;11407;56.964;-2.212;2022-09-30T15:15:43;7.40;;;1.60;;
22480;SDS011;11407;56.964;-2.212;2022-09-30T15:18:24;4.63;;;1.77;;
22480;SDS011;11407;56.964;-2.212;2022-09-30T15:21:11;9.00;;;1.97;;
22480;SDS011;11407;56.964;-2.212;2022-09-30T15:23:40;4.03;;;1.37;;
22480;SDS011;11407;56.964;-2.212;2022-09-30T15:26:09;5.53;;;1.40;;
22480;SDS011;11407;56.964;-2.212;2022-09-30T15:28:36;5.57;;;1.10;;
22480;SDS011;11407;56.964;-2.212;2022-09-30T15:31:03;3.60;;;1.13;;
22480;SDS011;11407;56.964;-2.212;2022-09-30T15:33:31;4.23;;;1.20;;
22480;SDS011;11407;56.964;-2.212;2022-09-30T15:36:00;6.03;;;1.17;;
22480;SDS011;11407;56.964;-2.212;2022-09-30T15:38:28;1.93;;;1.00;;
22480;SDS011;11407;56.964;-2.212;2022-09-30T15:41:00;1.80;;;0.87;;
22480;SDS011;11407;56.964;-2.212;2022-09-30T15:48:47;1.33;;;0.83;;
22480;SDS011;11407;56.964;-2.212;2022-09-30T15:53:50;2.03;;;0.80;;
22480;SDS011;11407;56.964;-2.212;2022-09-30T16:01:23;2.00;;;0.87;;
22480;SDS011;11407;56.964;-2.212;2022-09-30T16:03:58;2.53;;;0.93;;
22480;SDS011;11407;56.964;-2.212;2022-09-30T16:08:56;1.60;;;1.00;;
22480;SDS011;11407;56.964;-2.212;2022-09-30T16:11:29;1.57;;;1.03;;
22480;SDS011;11407;56.964;-2.212;2022-09-30T16:13:56;1.77;;;0.80;;
22480;SDS011;11407;56.964;-2.212;2022-09-30T16:16:24;2.70;;;0.70;;
22480;SDS011;11407;56.964;-2.212;2022-09-30T16:18:52;0.70;;;0.60;;
22480;SDS011;11407;56.964;-2.212;2022-09-30T16:24:41;1.20;;;0.80;;
22480;SDS011;11407;56.964;-2.212;2022-09-30T16:27:14;1.67;;;0.70;;
22480;SDS011;11407;56.964;-2.212;2022-09-30T16:29:45;1.23;;;0.93;;
22480;SDS011;11407;56.964;-2.212;2022-09-30T16:32:11;1.17;;;0.77;;
22480;SDS011;11407;56.964;-2.212;2022-09-30T16:34:38;2.33;;;0.83;;
22480;SDS011;11407;56.964;-2.212;2022-09-30T16:37:09;2.17;;;0.80;;
22480;SDS011;11407;56.964;-2.212;2022-09-30T16:39:36;1.90;;;0.87;;
22480;SDS011;11407;56.964;-2.212;2022-09-30T16:42:01;1.70;;;1.10;;
22480;SDS011;11407;56.964;-2.212;2022-09-30T16:44:28;1.20;;;0.70;;
22480;SDS011;11407;56.964;-2.212;2022-09-30T16:46:58;3.07;;;0.93;;
22480;SDS011;11407;56.964;-2.212;2022-09-30T16:49:24;2.57;;;1.00;;
22480;SDS011;11407;56.964;-2.212;2022-09-30T16:51:49;1.93;;;1.20;;
22480;SDS011;11407;56.964;-2.212;2022-09-30T16:54:15;3.73;;;1.20;;
22480;SDS011;11407;56.964;-2.212;2022-09-30T16:56:40;2.50;;;1.20;;
22480;SDS011;11407;56.964;-2.212;2022-09-30T16:59:09;1.27;;;0.80;;
22480;SDS011;11407;56.964;-2.212;2022-09-30T17:01:38;2.30;;;0.70;;
22480;SDS011;11407;56.964;-2.212;2022-09-30T17:04:04;1.43;;;0.70;;
22480;SDS011;11407;56.964;-2.212;2022-09-30T17:06:30;1.90;;;0.80;;
22480;SDS011;11407;56.964;-2.212;2022-09-30T17:08:57;1.30;;;0.70;;
22480;SDS011;11407;56.964;-2.212;2022-09-30T17:11:25;1.70;;;1.00;;
22480;SDS011;11407;56.964;-2.212;2022-09-30T17:13:55;0.80;;;0.60;;
22480;SDS011;11407;56.964;-2.212;2022-09-30T17:16:21;1.83;;;0.87;;
22480;SDS011;11407;56.964;-2.212;2022-09-30T17:18:47;3.07;;;0.90;;
22480;SDS011;11407;56.964;-2.212;2022-09-30T17:21:15;1.70;;;1.00;;
22480;SDS011;11407;56.964;-2.212;2022-09-30T17:23:41;2.00;;;1.03;;
22480;SDS011;11407;56.964;-2.212;2022-09-30T17:26:07;1.80;;;1.10;;
22480;SDS011;11407;56.964;-2.212;2022-09-30T17:28:32;3.30;;;1.03;;
22480;SDS011;11407;56.964;-2.212;2022-09-30T17:30:58;6.70;;;2.07;;
22480;SDS011;11407;56.964;-2.212;2022-09-30T17:33:24;5.20;;;2.40;;
22480;SDS011;11407;56.964;-2.212;2022-09-30T17:36:01;6.07;;;1.60;;
22480;SDS011;11407;56.964;-2.212;2022-09-30T17:38:30;3.43;;;1.13;;
22480;SDS011;11407;56.964;-2.212;2022-09-30T17:40:55;2.20;;;1.40;;
22480;SDS011;11407;56.964;-2.212;2022-09-30T17:43:39;2.97;;;1.90;;
22480;SDS011;11407;56.964;-2.212;2022-09-30T17:46:05;5.73;;;3.10;;
22480;SDS011;11407;56.964;-2.212;2022-09-30T17:48:30;9.23;;;5.00;;
22480;SDS011;11407;56.964;-2.212;2022-09-30T17:50:56;6.47;;;4.03;;
22480;SDS011;11407;56.964;-2.212;2022-09-30T17:53:22;7.37;;;2.97;;
22480;SDS011;11407;56.964;-2.212;2022-09-30T17:55:48;6.63;;;3.57;;
22480;SDS011;11407;56.964;-2.212;2022-09-30T17:58:26;5.60;;;4.37;;
22480;SDS011;11407;56.964;-2.212;2022-09-30T18:00:52;3.77;;;2.70;;
22480;SDS011;11407;56.964;-2.212;2022-09-30T18:03:17;11.03;;;6.80;;
22480;SDS011;11407;56.964;-2.212;2022-09-30T18:05:43;7.33;;;4.10;;
22480;SDS011;11407;56.964;-2.212;2022-09-30T18:08:12;6.50;;;3.63;;
22480;SDS011;11407;56.964;-2.212;2022-09-30T18:10:37;4.30;;;2.60;;
22480;SDS011;11407;56.964;-2.212;2022-09-30T18:13:03;4.17;;;2.70;;
22480;SDS011;11407;56.964;-2.212;2022-09-30T18:15:28;6.67;;;3.20;;
22480;SDS011;11407;56.964;-2.212;2022-09-30T18:17:55;6.37;;;4.33;;
22480;SDS011;11407;56.964;-2.212;2022-09-30T18:20:20;7.47;;;5.27;;
22480;SDS011;11407;56.964;-2.212;2022-09-30T18:22:46;6.00;;;4.60;;
22480;SDS011;11407;56.964;-2.212;2022-09-30T18:25:11;6.03;;;3.97;;
22480;SDS011;11407;56.964;-2.212;2022-09-30T18:27:50;5.30;;;3.20;;
22480;SDS011;11407;56.964;-2.212;2022-09-30T18:30:25;2.67;;;2.30;;
22480;SDS011;11407;56.964;-2.212;2022-09-30T18:32:52;2.90;;;2.00;;
22480;SDS011;11407;56.964;-2.212;2022-09-30T18:35:19;2.70;;;1.83;;
22480;SDS011;11407;56.964;-2.212;2022-09-30T18:37:47;3.60;;;1.90;;
22480;SDS011;11407;56.964;-2.212;2022-09-30T18:40:16;2.37;;;1.90;;
22480;SDS011;11407;56.964;-2.212;2022-09-30T18:42:46;2.53;;;2.07;;
22480;SDS011;11407;56.964;-2.212;2022-09-30T18:45:13;2.90;;;1.60;;
22480;SDS011;11407;56.964;-2.212;2022-09-30T18:47:39;1.60;;;1.30;;
22480;SDS011;11407;56.964;-2.212;2022-09-30T18:50:07;4.73;;;1.83;;
22480;SDS011;11407;56.964;-2.212;2022-09-30T18:52:36;5.13;;;3.33;;
22480;SDS011;11407;56.964;-2.212;2022-09-30T18:55:02;4.57;;;2.10;;
22480;SDS011;11407;56.964;-2.212;2022-09-30T18:57:28;3.90;;;2.67;;
22480;SDS011;11407;56.964;-2.212;2022-09-30T18:59:56;5.10;;;2.43;;
22480;SDS011;11407;56.964;-2.212;2022-09-30T19:02:22;3.53;;;2.23;;
22480;SDS011;11407;56.964;-2.212;2022-09-30T19:04:48;2.40;;;2.17;;